createdAt,value
2018-01-25T00:01:26.069Z,100725.25
2018-01-25T00:03:51.873Z,100721.20
2018-01-25T00:06:17.682Z,100705.55
2018-01-25T00:08:43.492Z,100716.91
2018-01-25T00:11:09.336Z,100718.27
2018-01-25T00:13:35.177Z,100712.98
2018-01-25T00:16:01.030Z,100717.23
2018-01-25T00:18:26.842Z,100721.20
2018-01-25T00:20:52.706Z,100705.84
2018-01-25T00:23:18.509Z,100720.20
2018-01-25T00:25:44.369Z,100711.25
2018-01-25T00:28:10.209Z,100718.20
2018-01-25T00:30:36.019Z,100708.29
2018-01-25T00:33:01.826Z,100716.45
2018-01-25T00:35:27.637Z,100715.80
2018-01-25T00:37:53.444Z,100719.34
2018-01-25T00:40:19.273Z,100720.66
2018-01-25T00:42:45.082Z,100724.56
2018-01-25T00:45:10.894Z,100720.19
2018-01-25T00:47:36.698Z,100716.13
2018-01-25T00:50:02.548Z,100717.71
2018-01-25T00:52:28.353Z,100720.09
2018-01-25T00:54:54.185Z,100711.24
2018-01-25T00:57:19.988Z,100723.22
2018-01-25T00:59:45.832Z,100724.31
2018-01-25T01:02:11.650Z,100721.67
2018-01-25T01:04:37.500Z,100723.25
2018-01-25T01:07:03.314Z,100719.94
2018-01-25T01:09:29.134Z,100713.28
2018-01-25T01:11:54.946Z,100721.45
2018-01-25T01:14:20.762Z,100722.09
2018-01-25T01:16:46.574Z,100717.77
2018-01-25T01:19:12.422Z,100726.70
2018-01-25T01:21:38.274Z,100720.71
2018-01-25T01:24:04.091Z,100727.50
2018-01-25T01:26:29.893Z,100722.64
2018-01-25T01:28:55.702Z,100727.02
2018-01-25T01:31:21.517Z,100723.61
2018-01-25T01:33:47.328Z,100729.05
2018-01-25T01:36:13.130Z,100729.20
2018-01-25T01:38:38.934Z,100728.98
2018-01-25T01:41:04.743Z,100732.16
2018-01-25T01:43:30.558Z,100731.75
2018-01-25T01:45:56.383Z,100732.00
2018-01-25T01:48:22.197Z,100733.61
2018-01-25T01:50:48.018Z,100718.42
2018-01-25T01:53:13.862Z,100732.48
2018-01-25T01:55:39.665Z,100728.63
2018-01-25T01:58:05.475Z,100725.41
2018-01-25T02:00:31.313Z,100729.11
2018-01-25T02:02:57.120Z,100741.47
2018-01-25T02:05:22.922Z,100740.82
2018-01-25T02:07:49.049Z,100739.02
2018-01-25T02:10:14.861Z,100743.20
2018-01-25T02:12:40.669Z,100744.11
2018-01-25T02:15:06.484Z,100740.38
2018-01-25T02:17:32.294Z,100743.02
2018-01-25T02:19:58.137Z,100734.25
2018-01-25T02:22:23.985Z,100730.48
2018-01-25T02:24:49.843Z,100732.00
2018-01-25T02:27:15.685Z,100739.05
2018-01-25T02:29:41.543Z,100730.32
2018-01-25T02:32:07.427Z,100729.48
2018-01-25T02:34:33.229Z,100735.78
2018-01-25T02:36:59.044Z,100734.44
2018-01-25T02:39:24.841Z,100729.05
2018-01-25T02:41:50.662Z,100729.52
2018-01-25T02:44:16.438Z,100723.03
2018-01-25T02:46:42.294Z,100726.75
2018-01-25T02:49:08.078Z,100720.17
2018-01-25T02:51:33.846Z,100709.78
2018-01-25T02:53:59.625Z,100717.12
2018-01-25T02:56:25.401Z,100714.65
2018-01-25T02:58:51.225Z,100714.47
2018-01-25T03:01:17.033Z,100718.50
2018-01-25T03:03:42.805Z,100721.12
2018-01-25T03:06:08.582Z,100722.69
2018-01-25T03:08:34.366Z,100730.01
2018-01-25T03:11:00.301Z,100727.03
2018-01-25T03:13:26.097Z,100730.12
2018-01-25T03:15:51.868Z,100721.97
2018-01-25T03:18:17.682Z,100725.35
2018-01-25T03:20:43.469Z,100721.55
2018-01-25T03:23:09.281Z,100717.17
2018-01-25T03:25:35.100Z,100717.00
2018-01-25T03:28:00.998Z,100714.72
2018-01-25T03:30:26.809Z,100722.98
2018-01-25T03:32:52.586Z,100714.70
2018-01-25T03:35:18.368Z,100714.70
2018-01-25T03:37:45.168Z,100711.77
2018-01-25T03:40:11.009Z,100709.97
2018-01-25T03:42:36.790Z,100710.41
2018-01-25T03:45:02.624Z,100708.77
2018-01-25T03:47:28.470Z,100715.86
2018-01-25T03:49:54.250Z,100713.38
2018-01-25T03:52:20.033Z,100722.47
2018-01-25T03:54:45.805Z,100719.11
2018-01-25T03:57:11.586Z,100723.59
2018-01-25T03:59:37.401Z,100722.63
2018-01-25T04:02:03.229Z,100708.84
2018-01-25T04:04:29.009Z,100698.16
2018-01-25T04:06:54.790Z,100705.28
2018-01-25T04:09:20.576Z,100704.52
2018-01-25T04:11:46.357Z,100721.98
2018-01-25T04:14:12.214Z,100721.44
2018-01-25T04:16:37.998Z,100722.63
2018-01-25T04:19:03.825Z,100718.57
2018-01-25T04:21:29.656Z,100710.66
2018-01-25T04:23:55.569Z,100711.22
2018-01-25T04:26:21.342Z,100704.83
2018-01-25T04:28:47.150Z,100702.55
2018-01-25T04:31:13.027Z,100699.84
2018-01-25T04:33:38.856Z,100701.27
2018-01-25T04:36:04.676Z,100708.89
2018-01-25T04:38:30.580Z,100718.06
2018-01-25T04:40:56.359Z,100717.55
2018-01-25T04:43:22.309Z,100720.27
2018-01-25T04:45:48.090Z,100723.88
2018-01-25T04:48:13.979Z,100730.07
2018-01-25T04:50:39.830Z,100727.74
2018-01-25T04:53:05.610Z,100728.03
2018-01-25T04:55:31.545Z,100721.84
2018-01-25T04:57:57.317Z,100715.72
2018-01-25T05:00:23.172Z,100714.99
2018-01-25T05:02:48.953Z,100724.13
2018-01-25T05:05:14.777Z,100725.44
2018-01-25T05:07:40.734Z,100731.09
2018-01-25T05:10:06.513Z,100731.41
2018-01-25T05:12:32.489Z,100730.98
2018-01-25T05:14:58.269Z,100729.53
2018-01-25T05:17:24.874Z,100738.89
2018-01-25T05:19:50.863Z,100733.48
2018-01-25T05:22:16.713Z,100740.39
2018-01-25T05:24:42.709Z,100741.38
2018-01-25T05:27:08.510Z,100740.75
2018-01-25T05:29:34.289Z,100743.75
2018-01-25T05:32:00.174Z,100746.82
2018-01-25T05:34:26.027Z,100745.50
2018-01-25T05:36:51.927Z,100750.10
2018-01-25T05:39:17.727Z,100751.80
2018-01-25T05:41:43.548Z,100748.14
2018-01-25T05:44:09.373Z,100744.59
2018-01-25T05:46:35.194Z,100753.07
2018-01-25T05:49:02.048Z,100755.39
2018-01-25T05:51:27.869Z,100751.66
2018-01-25T05:53:53.702Z,100757.80
2018-01-25T05:56:19.538Z,100755.89
2018-01-25T05:58:45.326Z,100752.88
2018-01-25T06:01:11.161Z,100755.52
2018-01-25T06:03:36.954Z,100765.84
2018-01-25T06:06:02.758Z,100755.02
2018-01-25T06:08:28.542Z,100766.16
2018-01-25T06:10:54.346Z,100768.05
2018-01-25T06:13:20.178Z,100770.19
2018-01-25T06:15:45.987Z,100775.32
2018-01-25T06:18:11.819Z,100778.74
2018-01-25T06:20:38.735Z,100779.63
2018-01-25T06:23:04.622Z,100777.83
2018-01-25T06:25:30.566Z,100774.77
2018-01-25T06:27:56.401Z,100773.16
2018-01-25T06:30:22.202Z,100775.38
2018-01-25T06:32:49.101Z,100778.75
2018-01-25T06:35:14.928Z,100774.72
2018-01-25T06:37:40.770Z,100783.77
2018-01-25T06:40:06.584Z,100784.19
2018-01-25T06:42:32.414Z,100775.69
2018-01-25T06:44:58.245Z,100784.80
2018-01-25T06:47:24.037Z,100777.55
2018-01-25T06:49:49.868Z,100782.41
2018-01-25T06:52:15.662Z,100788.95
2018-01-25T06:54:41.446Z,100783.48
2018-01-25T06:57:07.358Z,100793.92
2018-01-25T06:59:33.313Z,100791.59
2018-01-25T07:01:59.179Z,100794.00
2018-01-25T07:04:25.108Z,100794.89
2018-01-25T07:06:51.033Z,100792.14
2018-01-25T07:09:16.814Z,100794.05
2018-01-25T07:11:42.813Z,100792.59
2018-01-25T07:14:08.615Z,100801.59
2018-01-25T07:16:34.442Z,100796.27
2018-01-25T07:19:00.229Z,100801.91
2018-01-25T07:21:26.058Z,100807.30
2018-01-25T07:23:51.977Z,100806.89
2018-01-25T07:26:17.804Z,100811.15
2018-01-25T07:28:43.652Z,100811.15
2018-01-25T07:31:09.454Z,100813.81
2018-01-25T07:33:35.289Z,100819.73
2018-01-25T07:36:01.086Z,100820.69
2018-01-25T07:38:27.009Z,100822.98
2018-01-25T07:40:52.813Z,100819.55
2018-01-25T07:43:18.633Z,100829.52
2018-01-25T07:45:44.421Z,100826.59
2018-01-25T07:48:10.242Z,100829.72
2018-01-25T07:50:36.061Z,100830.92
2018-01-25T07:53:10.130Z,100837.75
2018-01-25T07:55:42.984Z,100844.34
2018-01-25T08:01:00.403Z,100844.77
2018-01-25T08:03:27.054Z,100852.75
2018-01-25T08:05:52.861Z,100851.36
2018-01-25T08:08:18.686Z,100856.36
2018-01-25T08:10:44.558Z,100854.91
2018-01-25T08:13:16.479Z,100854.63
2018-01-25T08:15:42.375Z,100856.16
2018-01-25T08:18:08.327Z,100852.39
2018-01-25T08:20:34.267Z,100854.81
2018-01-25T08:23:00.346Z,100856.23
2018-01-25T08:25:26.169Z,100850.47
2018-01-25T08:27:51.965Z,100856.88
2018-01-25T08:30:17.805Z,100860.26
2018-01-25T08:32:43.626Z,100861.22
2018-01-25T08:35:09.422Z,100864.47
2018-01-25T08:37:35.218Z,100864.53
2018-01-25T08:40:01.010Z,100866.34
2018-01-25T08:42:26.933Z,100858.52
2018-01-25T08:44:52.724Z,100873.95
2018-01-25T08:47:18.514Z,100871.25
2018-01-25T08:49:44.314Z,100874.91
2018-01-25T08:52:10.138Z,100876.05
2018-01-25T08:54:35.962Z,100883.44
2018-01-25T08:57:01.758Z,100885.85
2018-01-25T08:59:27.581Z,100891.44
2018-01-25T09:01:53.383Z,100887.12
2018-01-25T09:04:19.173Z,100893.66
2018-01-25T09:06:44.956Z,100894.05
2018-01-25T09:09:10.757Z,100897.01
2018-01-25T09:11:36.613Z,100903.70
2018-01-25T09:14:02.401Z,100908.77
2018-01-25T09:16:28.246Z,100912.02
2018-01-25T09:18:54.071Z,100921.04
2018-01-25T09:21:19.857Z,100919.46
2018-01-25T09:23:45.701Z,100924.74
2018-01-25T09:26:11.490Z,100917.30
2018-01-25T09:28:37.272Z,100919.66
2018-01-25T09:31:03.076Z,100930.09
2018-01-25T09:33:28.869Z,100937.18
2018-01-25T09:35:54.657Z,100935.44
2018-01-25T09:38:20.462Z,100939.14
2018-01-25T09:40:46.249Z,100945.62
2018-01-25T09:43:12.045Z,100946.73
2018-01-25T09:45:37.830Z,100948.45
2018-01-25T09:48:03.645Z,100949.64
2018-01-25T09:50:29.430Z,100953.38
2018-01-25T09:52:55.309Z,100952.69
2018-01-25T09:55:21.093Z,100958.73
2018-01-25T09:57:46.929Z,100951.13
2018-01-25T10:00:12.899Z,100956.00
2018-01-25T10:02:38.689Z,100950.72
2018-01-25T10:05:04.484Z,100947.56
2018-01-25T10:07:30.273Z,100951.84
2018-01-25T10:09:56.110Z,100960.96
2018-01-25T10:12:21.936Z,100960.13
2018-01-25T10:14:47.762Z,100969.98
2018-01-25T10:17:13.549Z,100969.28
2018-01-25T10:19:39.386Z,100972.31
2018-01-25T10:22:05.227Z,100974.44
2018-01-25T10:24:31.014Z,100972.63
2018-01-25T10:26:56.805Z,100980.02
2018-01-25T10:29:22.596Z,100972.63
2018-01-25T10:31:48.421Z,100972.50
2018-01-25T10:34:14.216Z,100978.48
2018-01-25T10:36:40.063Z,100978.88
2018-01-25T10:39:05.856Z,100981.27
2018-01-25T10:41:31.761Z,100984.31
2018-01-25T10:43:57.557Z,100979.80
2018-01-25T10:46:23.381Z,100975.55
2018-01-25T10:48:49.183Z,100977.02
2018-01-25T10:51:15.014Z,100972.58
2018-01-25T10:53:40.802Z,100978.21
2018-01-25T10:56:06.595Z,100977.91
2018-01-25T10:58:32.413Z,100974.11
2018-01-25T11:01:04.278Z,100971.40
2018-01-25T11:03:30.141Z,100977.84
2018-01-25T11:05:55.927Z,100978.83
2018-01-25T11:08:21.710Z,100980.15
2018-01-25T11:10:47.508Z,100975.97
2018-01-25T11:13:13.294Z,100979.11
2018-01-25T11:15:39.077Z,100970.97
2018-01-25T11:18:04.894Z,100968.47
2018-01-25T11:20:30.686Z,100968.12
2018-01-25T11:22:56.514Z,100967.49
2018-01-25T11:25:22.293Z,100962.09
2018-01-25T11:27:48.122Z,100965.90
2018-01-25T11:30:13.950Z,100960.53
2018-01-25T11:32:39.733Z,100967.86
2018-01-25T11:35:05.525Z,100958.52
2018-01-25T11:37:31.372Z,100959.23
2018-01-25T11:39:57.162Z,100950.20
2018-01-25T11:42:22.945Z,100951.69
2018-01-25T11:44:48.733Z,100946.36
2018-01-25T11:47:14.533Z,100948.81
2018-01-25T11:49:40.362Z,100948.59
2018-01-25T11:52:06.151Z,100949.48
2018-01-25T11:54:31.982Z,100945.27
2018-01-25T11:56:57.761Z,100936.22
2018-01-25T11:59:23.543Z,100944.75
2018-01-25T12:01:49.362Z,100939.69
2018-01-25T12:04:15.214Z,100940.11
2018-01-25T12:06:41.000Z,100942.14
2018-01-25T12:09:06.783Z,100933.44
2018-01-25T12:11:32.569Z,100925.73
2018-01-25T12:13:58.358Z,100931.44
2018-01-25T12:16:24.138Z,100933.63
2018-01-25T12:18:49.937Z,100929.35
2018-01-25T12:21:15.765Z,100922.10
2018-01-25T12:23:41.550Z,100925.80
2018-01-25T12:26:14.314Z,100933.05
2018-01-25T12:28:40.102Z,100935.74
2018-01-25T12:31:05.974Z,100943.45
2018-01-25T12:33:31.757Z,100943.75
2018-01-25T12:35:57.617Z,100942.39
2018-01-25T12:38:23.449Z,100939.20
2018-01-25T12:40:49.333Z,100937.49
2018-01-25T12:43:15.156Z,100937.12
2018-01-25T12:45:40.965Z,100935.45
2018-01-25T12:48:06.917Z,100932.11
2018-01-25T12:50:32.705Z,100932.41
2018-01-25T12:52:58.709Z,100932.21
2018-01-25T12:55:24.492Z,100923.69
2018-01-25T12:57:50.278Z,100933.17
2018-01-25T13:00:16.069Z,100933.16
2018-01-25T13:02:41.860Z,100935.45
2018-01-25T13:05:07.709Z,100930.75
2018-01-25T13:07:33.496Z,100931.85
2018-01-25T13:09:59.338Z,100928.92
2018-01-25T13:12:25.129Z,100930.41
2018-01-25T13:14:50.928Z,100924.75
2018-01-25T13:17:16.722Z,100923.98
2018-01-25T13:19:42.531Z,100919.91
2018-01-25T13:22:08.333Z,100917.52
2018-01-25T13:24:34.116Z,100920.92
2018-01-25T13:26:59.905Z,100921.45
2018-01-25T13:29:25.702Z,100916.22
2018-01-25T13:31:51.493Z,100920.48
2018-01-25T13:34:17.284Z,100911.19
2018-01-25T13:36:43.065Z,100916.59
2018-01-25T13:39:08.852Z,100914.44
2018-01-25T13:41:34.676Z,100912.56
2018-01-25T13:44:00.498Z,100916.24
2018-01-25T13:46:26.289Z,100902.64
2018-01-25T13:48:52.110Z,100902.64
2018-01-25T13:51:17.897Z,100900.00
2018-01-25T13:53:43.864Z,100900.97
2018-01-25T13:56:09.677Z,100898.81
2018-01-25T13:58:35.506Z,100904.52
2018-01-25T14:01:01.291Z,100903.26
2018-01-25T14:03:27.086Z,100903.19
2018-01-25T14:05:52.913Z,100897.84
2018-01-25T14:08:18.694Z,100889.11
2018-01-25T14:10:44.523Z,100896.97
2018-01-25T14:13:10.334Z,100899.16
2018-01-25T14:15:36.161Z,100895.98
2018-01-25T14:18:02.098Z,100898.00
2018-01-25T14:20:27.897Z,100898.77
2018-01-25T14:22:53.681Z,100907.31
2018-01-25T14:25:19.472Z,100913.78
2018-01-25T14:27:45.261Z,100922.77
2018-01-25T14:30:11.085Z,100924.09
2018-01-25T14:32:37.888Z,100932.39
2018-01-25T14:35:03.706Z,100931.85
2018-01-25T14:37:29.487Z,100931.36
2018-01-25T14:39:55.405Z,100932.56
2018-01-25T14:42:21.198Z,100933.16
2018-01-25T14:44:47.071Z,100932.55
2018-01-25T14:47:12.858Z,100928.84
2018-01-25T14:49:38.641Z,100927.27
2018-01-25T14:52:04.475Z,100926.97
2018-01-25T14:54:30.266Z,100928.78
2018-01-25T14:56:56.155Z,100927.98
2018-01-25T14:59:21.953Z,100925.94
2018-01-25T15:01:47.742Z,100925.59
2018-01-25T15:04:13.522Z,100927.95
2018-01-25T15:06:39.305Z,100926.09
2018-01-25T15:09:05.102Z,100924.34
2018-01-25T15:11:30.889Z,100927.39
2018-01-25T15:13:56.690Z,100925.17
2018-01-25T15:16:22.469Z,100922.63
2018-01-25T15:18:48.300Z,100924.97
2018-01-25T15:21:14.092Z,100929.09
2018-01-25T15:23:39.874Z,100925.59
2018-01-25T15:26:05.681Z,100927.63
2018-01-25T15:28:31.470Z,100927.63
2018-01-25T15:31:00.243Z,100929.57
2018-01-25T15:33:26.059Z,100927.89
2018-01-25T15:35:51.876Z,100919.00
2018-01-25T15:38:17.657Z,100921.03
2018-01-25T15:40:43.472Z,100918.52
2018-01-25T15:43:09.262Z,100905.73
2018-01-25T15:45:35.160Z,100901.13
2018-01-25T15:48:00.946Z,100898.23
2018-01-25T15:50:26.749Z,100901.64
2018-01-25T15:52:52.518Z,100889.69
2018-01-25T15:55:18.289Z,100898.34
2018-01-25T15:57:44.065Z,100900.38
2018-01-25T16:00:09.898Z,100901.32
2018-01-25T16:02:35.673Z,100904.63
2018-01-25T16:05:01.482Z,100911.69
2018-01-25T16:07:27.392Z,100910.23
2018-01-25T16:09:53.183Z,100908.56
2018-01-25T16:12:18.965Z,100903.56
2018-01-25T16:14:44.764Z,100898.91
2018-01-25T16:17:10.550Z,100899.47
2018-01-25T16:19:36.386Z,100901.78
2018-01-25T16:22:02.170Z,100898.50
2018-01-25T16:24:28.033Z,100900.15
2018-01-25T16:26:53.813Z,100904.89
2018-01-25T16:29:19.599Z,100909.69
2018-01-25T16:31:45.388Z,100907.53
2018-01-25T16:34:11.177Z,100900.50
2018-01-25T16:36:36.965Z,100900.56
2018-01-25T16:39:02.900Z,100889.81
2018-01-25T16:41:28.888Z,100897.73
2018-01-25T16:43:54.678Z,100902.89
2018-01-25T16:46:20.458Z,100903.14
2018-01-25T16:48:46.288Z,100900.73
2018-01-25T16:51:12.073Z,100901.77
2018-01-25T16:53:37.870Z,100898.31
2018-01-25T16:56:03.687Z,100898.92
2018-01-25T16:58:29.526Z,100900.11
2018-01-25T17:00:55.341Z,100893.42
2018-01-25T17:03:21.164Z,100896.61
2018-01-25T17:05:47.019Z,100886.48
2018-01-25T17:08:12.871Z,100890.71
2018-01-25T17:10:38.666Z,100887.80
2018-01-25T17:13:04.466Z,100885.58
2018-01-25T17:15:30.306Z,100889.84
2018-01-25T17:17:56.277Z,100890.64
2018-01-25T17:20:22.074Z,100900.53
2018-01-25T17:22:47.950Z,100899.31
2018-01-25T17:25:13.765Z,100896.67
2018-01-25T17:27:39.573Z,100902.73
2018-01-25T17:30:05.397Z,100892.59
2018-01-25T17:32:31.215Z,100892.30
2018-01-25T17:34:56.988Z,100887.85
2018-01-25T17:37:22.766Z,100881.19
2018-01-25T17:39:48.552Z,100880.45
2018-01-25T17:42:14.369Z,100886.62
2018-01-25T17:44:40.146Z,100886.95
2018-01-25T17:47:05.966Z,100886.59
2018-01-25T17:49:31.750Z,100894.13
2018-01-25T17:51:57.591Z,100893.97
2018-01-25T17:54:23.374Z,100895.64
2018-01-25T17:56:49.160Z,100895.65
2018-01-25T17:59:14.930Z,100895.72
2018-01-25T18:01:40.921Z,100895.77
2018-01-25T18:04:06.719Z,100899.83
2018-01-25T18:06:32.501Z,100901.28
2018-01-25T18:08:58.331Z,100900.02
2018-01-25T18:11:24.106Z,100902.05
2018-01-25T18:13:49.953Z,100903.62
2018-01-25T18:16:15.729Z,100904.98
2018-01-25T18:18:41.557Z,100913.77
2018-01-25T18:21:07.337Z,100914.95
2018-01-25T18:23:33.159Z,100921.84
2018-01-25T18:25:58.942Z,100929.08
2018-01-25T18:28:24.777Z,100927.70
2018-01-25T18:30:50.558Z,100927.69
2018-01-25T18:33:16.354Z,100931.09
2018-01-25T18:35:42.202Z,100937.69
2018-01-25T18:38:07.986Z,100937.21
2018-01-25T18:40:33.781Z,100937.21
2018-01-25T18:43:00.368Z,100931.98
2018-01-25T18:45:26.160Z,100934.15
2018-01-25T18:47:51.955Z,100936.09
2018-01-25T18:50:17.750Z,100938.44
2018-01-25T18:52:43.539Z,100936.28
2018-01-25T18:55:09.378Z,100939.16
2018-01-25T18:57:35.445Z,100940.05
2018-01-25T19:00:01.243Z,100944.92
2018-01-25T19:02:27.127Z,100945.47
2018-01-25T19:04:52.910Z,100948.94
2018-01-25T19:07:18.931Z,100953.55
2018-01-25T19:09:44.760Z,100953.97
2018-01-25T19:12:10.617Z,100957.98
2018-01-25T19:14:36.446Z,100957.89
2018-01-25T19:17:02.374Z,100957.06
2018-01-25T19:19:28.614Z,100955.00
2018-01-25T19:21:55.384Z,100953.88
2018-01-25T19:24:21.242Z,100960.49
2018-01-25T19:26:47.172Z,100961.51
2018-01-25T19:29:13.145Z,100957.34
2018-01-25T19:31:39.022Z,100957.55
2018-01-25T19:34:04.823Z,100955.70
2018-01-25T19:36:30.618Z,100952.70
2018-01-25T19:38:56.418Z,100950.61
2018-01-25T19:41:22.403Z,100949.00
2018-01-25T19:43:49.174Z,100952.70
2018-01-25T19:46:14.975Z,100951.08
2018-01-25T19:48:40.763Z,100949.70
2018-01-25T19:51:06.557Z,100945.32
2018-01-25T19:53:32.338Z,100949.23
2018-01-25T19:55:58.299Z,100945.73
2018-01-25T19:58:24.080Z,100947.47
2018-01-25T20:00:49.863Z,100945.62
2018-01-25T20:03:15.655Z,100950.96
2018-01-25T20:05:41.440Z,100955.59
2018-01-25T20:08:07.305Z,100946.97
2018-01-25T20:10:33.077Z,100946.31
2018-01-25T20:12:58.862Z,100946.09
2018-01-25T20:15:24.645Z,100955.39
2018-01-25T20:17:50.453Z,100956.84
2018-01-25T20:20:16.231Z,100953.30
2018-01-25T20:22:42.043Z,100944.83
2018-01-25T20:25:07.950Z,100943.72
2018-01-25T20:27:33.738Z,100943.18
2018-01-25T20:29:59.624Z,100940.95
2018-01-25T20:32:25.413Z,100942.77
2018-01-25T20:34:51.201Z,100940.82
2018-01-25T20:37:17.054Z,100942.91
2018-01-25T20:39:42.833Z,100937.07
2018-01-25T20:42:08.653Z,100937.74
2018-01-25T20:44:34.478Z,100937.62
2018-01-25T20:47:00.265Z,100944.91
2018-01-25T20:49:26.086Z,100946.98
2018-01-25T20:51:51.921Z,100954.30
2018-01-25T20:54:17.746Z,100954.14
2018-01-25T20:56:43.562Z,100950.75
2018-01-25T20:59:09.382Z,100948.59
2018-01-25T21:01:35.171Z,100946.78
2018-01-25T21:04:00.997Z,100949.36
2018-01-25T21:06:26.777Z,100944.59
2018-01-25T21:08:52.673Z,100946.38
2018-01-25T21:11:18.455Z,100947.75
2018-01-25T21:13:44.281Z,100948.59
2018-01-25T21:16:10.126Z,100949.00
2018-01-25T21:18:35.912Z,100949.16
2018-01-25T21:21:01.685Z,100944.22
2018-01-25T21:23:27.484Z,100946.58
2018-01-25T21:25:53.274Z,100947.47
2018-01-25T21:28:19.066Z,100953.53
2018-01-25T21:30:44.889Z,100954.38
2018-01-25T21:33:10.708Z,100954.70
2018-01-25T21:35:36.484Z,100951.64
2018-01-25T21:38:02.302Z,100948.67
2018-01-25T21:40:28.086Z,100952.02
2018-01-25T21:42:53.916Z,100958.10
2018-01-25T21:45:19.709Z,100958.52
2018-01-25T21:47:45.796Z,100956.38
2018-01-25T21:50:11.753Z,100952.97
2018-01-25T21:52:37.528Z,100947.56
2018-01-25T21:55:03.326Z,100954.00
2018-01-25T21:57:29.105Z,100951.03
2018-01-25T21:59:54.929Z,100944.00
2018-01-25T22:02:21.621Z,100945.81
2018-01-25T22:04:47.405Z,100947.97
2018-01-25T22:07:13.210Z,100952.55
2018-01-25T22:09:39.025Z,100952.57
2018-01-25T22:12:04.809Z,100962.98
2018-01-25T22:14:30.661Z,100961.92
2018-01-25T22:16:56.445Z,100961.80
2018-01-25T22:19:22.284Z,100958.94
2018-01-25T22:21:48.063Z,100953.74
2018-01-25T22:24:13.878Z,100947.70
2018-01-25T22:29:05.360Z,100949.00
2018-01-25T22:31:31.141Z,100955.61
2018-01-25T22:33:56.927Z,100952.64
2018-01-25T22:36:22.701Z,100955.81
2018-01-25T22:38:48.528Z,100953.95
2018-01-25T22:41:14.309Z,100952.09
2018-01-25T22:43:40.127Z,100956.95
2018-01-25T22:46:05.932Z,100947.70
2018-01-25T22:48:31.744Z,100944.86
2018-01-25T22:50:57.564Z,100946.78
2018-01-25T22:53:23.339Z,100950.59
2018-01-25T22:55:49.127Z,100956.92
2018-01-25T22:58:15.018Z,100962.30
2018-01-25T23:00:40.832Z,100966.09
2018-01-25T23:03:06.624Z,100964.44
2018-01-25T23:05:32.396Z,100967.38
2018-01-25T23:07:58.172Z,100970.41
2018-01-25T23:10:23.963Z,100964.98
2018-01-25T23:12:49.746Z,100969.66
2018-01-25T23:15:15.531Z,100969.16
2018-01-25T23:17:41.324Z,100967.22
2018-01-25T23:20:07.109Z,100973.18
2018-01-25T23:22:32.899Z,100972.22
2018-01-25T23:24:58.713Z,100964.34
2018-01-25T23:27:24.501Z,100970.62
2018-01-25T23:29:50.303Z,100964.36
2018-01-25T23:32:16.071Z,100964.38
2018-01-25T23:34:41.875Z,100964.58
2018-01-25T23:37:07.816Z,100962.35
2018-01-25T23:39:33.634Z,100961.53
2018-01-25T23:41:59.555Z,100953.45
2018-01-25T23:44:25.372Z,100955.39
2018-01-25T23:46:51.192Z,100947.14
2018-01-25T23:49:17.002Z,100947.75
2018-01-25T23:51:42.822Z,100937.70
2018-01-25T23:54:08.641Z,100936.98
2018-01-25T23:56:34.451Z,100936.56
2018-01-25T23:59:00.273Z,100938.12
